La rose des vents
Donnes mto: Semaine 17/01/22 - 23/01/22 (S 3)
Date Horaire Temp. E. Hum. E. P.atmo. Pluie Vent 1mn Direction Ensoleilleme Ev.Tr. Solaire P. de rose Temp au vent Rafales
17/01/2022 00:00 6,3 C 83 % 1025,3 hPa 0,0 l/m 0,1 km/h (0 Bft) SE 0,00 h 0,000 mm 0 W/m 3,6 C 6,3 C 0,7 km/h (0 Bft)
17/01/2022 01:00 5,8 C 84 % 1025,6 hPa 0,0 l/m 0,0 km/h (0 Bft) N 0,00 h 0,000 mm 0 W/m 3,3 C 5,8 C 0,2 km/h (0 Bft)
17/01/2022 02:00 5,6 C 86 % 1025,7 hPa 0,0 l/m 0,1 km/h (0 Bft) SE 0,00 h 0,000 mm 0 W/m 3,5 C 5,6 C 0,3 km/h (0 Bft)
17/01/2022 03:00 5,2 C 81 % 1025,8 hPa 0,0 l/m 0,2 km/h (0 Bft) SE 0,00 h 0,000 mm 0 W/m 2,2 C 5,2 C 0,9 km/h (0 Bft)
17/01/2022 04:00 5,4 C 79 % 1025,8 hPa 0,0 l/m 0,0 km/h (0 Bft) SE 0,00 h 0,000 mm 0 W/m 2,1 C 5,4 C 0,6 km/h (0 Bft)
17/01/2022 05:00 4,9 C 77 % 1026,3 hPa 0,0 l/m 0,0 km/h (0 Bft) N 0,00 h 0,025 mm 0 W/m 1,2 C 4,9 C 0,1 km/h (0 Bft)
17/01/2022 06:00 5,3 C 76 % 1026,1 hPa 0,0 l/m 1,0 km/h (0 Bft) SE 0,00 h 0,025 mm 0 W/m 1,3 C 5,3 C 2,0 km/h (1 Bft)
17/01/2022 07:00 5,9 C 77 % 1026,0 hPa 0,0 l/m 1,1 km/h (1 Bft) SE 0,00 h 0,025 mm 5 W/m 2,1 C 5,9 C 2,4 km/h (1 Bft)
17/01/2022 08:00 6,3 C 67 % 1026,7 hPa 0,0 l/m 0,5 km/h (0 Bft) SE 0,80 h 0,000 mm 49 W/m 0,7 C 6,3 C 1,3 km/h (1 Bft)
17/01/2022 09:00 8,7 C 54 % 1027,5 hPa 0,0 l/m 0,0 km/h (0 Bft) N 1,00 h 0,025 mm 175 W/m -0,0 C 8,7 C 0,0 km/h (0 Bft)
17/01/2022 10:00 11,7 C 48 % 1027,8 hPa 0,0 l/m 0,0 km/h (0 Bft) N 1,00 h 0,076 mm 294 W/m 1,1 C 11,7 C 0,0 km/h (0 Bft)
17/01/2022 11:00 15,0 C 46 % 1027,7 hPa 0,0 l/m 0,2 km/h (0 Bft) E 1,00 h 0,152 mm 374 W/m 3,4 C 15,0 C 1,3 km/h (1 Bft)
17/01/2022 12:00 16,2 C 44 % 1027,6 hPa 0,0 l/m 0,3 km/h (0 Bft) S 1,00 h 0,203 mm 408 W/m 4,0 C 16,2 C 1,5 km/h (1 Bft)
17/01/2022 13:00 16,5 C 44 % 1026,8 hPa 0,0 l/m 1,6 km/h (1 Bft) S 1,00 h 0,229 mm 391 W/m 4,1 C 16,5 C 4,4 km/h (1 Bft)
17/01/2022 14:00 16,7 C 54 % 1025,9 hPa 0,0 l/m 0,9 km/h (0 Bft) S 1,00 h 0,229 mm 320 W/m 7,4 C 16,7 C 3,1 km/h (1 Bft)
17/01/2022 15:00 16,4 C 60 % 1025,6 hPa 0,0 l/m 0,3 km/h (0 Bft) S 1,00 h 0,178 mm 213 W/m 8,7 C 16,4 C 1,5 km/h (1 Bft)
17/01/2022 16:00 15,8 C 66 % 1025,7 hPa 0,0 l/m 0,0 km/h (0 Bft) N 1,00 h 0,127 mm 89 W/m 9,4 C 15,8 C 0,0 km/h (0 Bft)
17/01/2022 17:00 12,8 C 74 % 1025,7 hPa 0,0 l/m 0,0 km/h (0 Bft) N 0,20 h 0,051 mm 13 W/m 8,3 C 12,8 C 0,0 km/h (0 Bft)
17/01/2022 18:00 10,3 C 81 % 1025,4 hPa 0,0 l/m 0,0 km/h (0 Bft) N 0,00 h 0,000 mm 0 W/m 7,3 C 10,3 C 0,0 km/h (0 Bft)
17/01/2022 19:00 8,5 C 85 % 1025,4 hPa 0,0 l/m 0,0 km/h (0 Bft) N 0,00 h 0,025 mm 0 W/m 6,0 C 8,5 C 0,0 km/h (0 Bft)
17/01/2022 20:00 7,6 C 87 % 1025,7 hPa 0,0 l/m 0,0 km/h (0 Bft) N 0,00 h 0,000 mm 0 W/m 5,6 C 7,6 C 0,1 km/h (0 Bft)
17/01/2022 21:00 6,8 C 83 % 1025,9 hPa 0,0 l/m 0,0 km/h (0 Bft) N 0,00 h 0,000 mm 0 W/m 4,2 C 6,8 C 0,1 km/h (0 Bft)
17/01/2022 22:00 6,7 C 81 % 1025,7 hPa 0,0 l/m 0,0 km/h (0 Bft) N 0,00 h 0,000 mm 0 W/m 3,6 C 6,7 C 0,0 km/h (0 Bft)
17/01/2022 23:00 6,8 C 79 % 1025,7 hPa 0,0 l/m 0,0 km/h (0 Bft) N 0,00 h 0,000 mm 0 W/m 3,4 C 6,8 C 0,0 km/h (0 Bft)
18/01/2022 00:00 7,1 C 76 % 1025,6 hPa 0,0 l/m 0,0 km/h (0 Bft) N 0,00 h 0,025 mm 0 W/m 3,1 C 7,1 C 0,1 km/h (0 Bft)
18/01/2022 01:00 6,6 C 69 % 1025,8 hPa 0,0 l/m 0,1 km/h (0 Bft) S 0,00 h 0,025 mm 0 W/m 1,4 C 6,6 C 0,5 km/h (0 Bft)
18/01/2022 02:00 5,9 C 71 % 1026,2 hPa 0,0 l/m 0,1 km/h (0 Bft) S 0,00 h 0,025 mm 0 W/m 1,1 C 5,9 C 1,1 km/h (0 Bft)
18/01/2022 03:00 5,6 C 69 % 1026,3 hPa 0,0 l/m 0,1 km/h (0 Bft) S 0,00 h 0,025 mm 0 W/m 0,4 C 5,6 C 0,6 km/h (0 Bft)
18/01/2022 04:00 5,5 C 69 % 1026,4 hPa 0,0 l/m 0,0 km/h (0 Bft) N 0,00 h 0,025 mm 0 W/m 0,3 C 5,5 C 0,1 km/h (0 Bft)
18/01/2022 05:00 5,4 C 68 % 1026,9 hPa 0,0 l/m 0,0 km/h (0 Bft) N 0,00 h 0,025 mm 0 W/m 0,0 C 5,4 C 0,1 km/h (0 Bft)
18/01/2022 06:00 5,4 C 65 % 1027,7 hPa 0,0 l/m 0,0 km/h (0 Bft) S 0,00 h 0,025 mm 0 W/m -0,7 C 5,4 C 0,1 km/h (0 Bft)
18/01/2022 07:00 5,7 C 70 % 1028,4 hPa 0,0 l/m 0,1 km/h (0 Bft) S 0,00 h 0,025 mm 0 W/m 0,7 C 5,7 C 0,3 km/h (0 Bft)
18/01/2022 08:00 6,1 C 73 % 1029,4 hPa 0,0 l/m 0,0 km/h (0 Bft) N 0,05 h 0,000 mm 28 W/m 1,6 C 6,1 C 0,1 km/h (0 Bft)
18/01/2022 09:00 7,6 C 78 % 1029,7 hPa 0,0 l/m 0,0 km/h (0 Bft) N 0,55 h 0,025 mm 126 W/m 4,0 C 7,6 C 0,0 km/h (0 Bft)
18/01/2022 10:00 11,0 C 72 % 1030,3 hPa 0,0 l/m 0,0 km/h (0 Bft) N 0,83 h 0,051 mm 260 W/m 6,2 C 11,0 C 0,0 km/h (0 Bft)
18/01/2022 11:00 13,8 C 71 % 1030,4 hPa 0,0 l/m 0,8 km/h (0 Bft) E-NE 1,00 h 0,127 mm 367 W/m 8,6 C 13,8 C 3,1 km/h (1 Bft)
18/01/2022 12:00 14,9 C 68 % 1030,2 hPa 0,0 l/m 1,3 km/h (1 Bft) E 0,98 h 0,178 mm 390 W/m 9,1 C 14,9 C 4,4 km/h (1 Bft)
18/01/2022 13:00 15,3 C 66 % 1030,3 hPa 0,0 l/m 1,2 km/h (1 Bft) SE 1,00 h 0,203 mm 377 W/m 9,1 C 15,3 C 3,9 km/h (1 Bft)
18/01/2022 14:00 14,6 C 68 % 1030,3 hPa 0,0 l/m 0,7 km/h (0 Bft) E-SE 1,00 h 0,203 mm 312 W/m 8,8 C 14,6 C 3,0 km/h (1 Bft)
18/01/2022 15:00 14,7 C 68 % 1030,5 hPa 0,0 l/m 0,1 km/h (0 Bft) E-SE 1,00 h 0,178 mm 208 W/m 8,8 C 14,7 C 1,2 km/h (1 Bft)
18/01/2022 16:00 13,9 C 70 % 1030,5 hPa 0,0 l/m 0,0 km/h (0 Bft) N 0,92 h 0,102 mm 86 W/m 8,6 C 13,9 C 0,0 km/h (0 Bft)
18/01/2022 17:00 11,6 C 76 % 1030,8 hPa 0,0 l/m 0,0 km/h (0 Bft) N 0,15 h 0,051 mm 13 W/m 7,5 C 11,6 C 0,0 km/h (0 Bft)
18/01/2022 18:00 9,6 C 82 % 1031,4 hPa 0,0 l/m 0,0 km/h (0 Bft) N 0,00 h 0,000 mm 0 W/m 6,7 C 9,6 C 0,0 km/h (0 Bft)
18/01/2022 19:00 8,4 C 85 % 1031,8 hPa 0,0 l/m 0,0 km/h (0 Bft) N 0,00 h 0,025 mm 0 W/m 5,9 C 8,4 C 0,1 km/h (0 Bft)
18/01/2022 20:00 7,7 C 87 % 1032,0 hPa 0,0 l/m 0,0 km/h (0 Bft) N 0,00 h 0,000 mm 0 W/m 5,6 C 7,7 C 0,1 km/h (0 Bft)
18/01/2022 21:00 7,5 C 88 % 1032,5 hPa 0,0 l/m 0,1 km/h (0 Bft) E-SE 0,00 h 0,000 mm 0 W/m 5,6 C 7,5 C 0,6 km/h (0 Bft)
18/01/2022 22:00 7,6 C 86 % 1032,1 hPa 0,0 l/m 0,1 km/h (0 Bft) E-SE 0,00 h 0,000 mm 0 W/m 5,4 C 7,6 C 0,8 km/h (0 Bft)
18/01/2022 23:00 7,3 C 86 % 1032,1 hPa 0,0 l/m 0,1 km/h (0 Bft) E-SE 0,00 h 0,000 mm 0 W/m 5,1 C 7,3 C 0,6 km/h (0 Bft)
19/01/2022 00:00 7,0 C 85 % 1032,0 hPa 0,0 l/m 0,0 km/h (0 Bft) N 0,00 h 0,000 mm 0 W/m 4,6 C 7,0 C 0,1 km/h (0 Bft)
19/01/2022 01:00 6,6 C 86 % 1031,7 hPa 0,0 l/m 0,0 km/h (0 Bft) N 0,00 h 0,000 mm 0 W/m 4,3 C 6,6 C 0,1 km/h (0 Bft)
19/01/2022 02:00 6,3 C 85 % 1031,7 hPa 0,0 l/m 0,0 km/h (0 Bft) N 0,00 h 0,000 mm 0 W/m 4,0 C 6,3 C 0,2 km/h (0 Bft)
19/01/2022 03:00 6,3 C 85 % 1031,3 hPa 0,0 l/m 0,0 km/h (0 Bft) N 0,00 h 0,000 mm 0 W/m 3,9 C 6,3 C 0,2 km/h (0 Bft)
19/01/2022 04:00 6,1 C 85 % 1031,1 hPa 0,0 l/m 0,1 km/h (0 Bft) E-SE 0,00 h 0,000 mm 0 W/m 3,8 C 6,1 C 0,7 km/h (0 Bft)
19/01/2022 05:00 6,3 C 83 % 1031,1 hPa 0,0 l/m 0,0 km/h (0 Bft) N 0,00 h 0,000 mm 0 W/m 3,6 C 6,3 C 0,2 km/h (0 Bft)
19/01/2022 06:00 6,2 C 85 % 1031,1 hPa 0,0 l/m 0,2 km/h (0 Bft) E-SE 0,00 h 0,000 mm 0 W/m 3,8 C 6,2 C 1,1 km/h (0 Bft)
19/01/2022 07:00 6,4 C 85 % 1031,1 hPa 0,0 l/m 1,2 km/h (1 Bft) E-SE 0,00 h 0,000 mm 5 W/m 4,0 C 6,4 C 3,7 km/h (1 Bft)
19/01/2022 08:00 6,7 C 84 % 1030,8 hPa 0,0 l/m 2,5 km/h (1 Bft) E-SE 0,03 h 0,000 mm 28 W/m 4,2 C 6,7 C 5,8 km/h (2 Bft)
19/01/2022 09:00 8,1 C 81 % 1030,7 hPa 0,0 l/m 0,9 km/h (0 Bft) O-NO 0,90 h 0,025 mm 143 W/m 5,1 C 8,1 C 2,8 km/h (1 Bft)
19/01/2022 10:00 10,6 C 75 % 1030,7 hPa 0,0 l/m 0,0 km/h (0 Bft) N 1,00 h 0,076 mm 258 W/m 6,3 C 10,6 C 0,1 km/h (0 Bft)
19/01/2022 11:00 12,7 C 70 % 1030,4 hPa 0,0 l/m 0,0 km/h (0 Bft) O-NO 1,00 h 0,127 mm 351 W/m 7,3 C 12,7 C 0,2 km/h (0 Bft)
19/01/2022 12:00 14,5 C 63 % 1029,4 hPa 0,0 l/m 0,6 km/h (0 Bft) E-SE 0,93 h 0,178 mm 374 W/m 7,7 C 14,5 C 2,5 km/h (1 Bft)
19/01/2022 13:00 15,1 C 63 % 1028,1 hPa 0,0 l/m 1,9 km/h (1 Bft) S-SE 1,00 h 0,203 mm 383 W/m 8,2 C 15,1 C 4,6 km/h (1 Bft)
19/01/2022 14:00 14,1 C 66 % 1027,2 hPa 0,0 l/m 2,4 km/h (1 Bft) S-SE 0,85 h 0,203 mm 264 W/m 8,0 C 14,1 C 5,5 km/h (1 Bft)
19/01/2022 15:00 13,0 C 72 % 1026,9 hPa 0,0 l/m 2,3 km/h (1 Bft) S-SE 0,65 h 0,152 mm 159 W/m 8,1 C 13,0 C 5,1 km/h (1 Bft)
19/01/2022 16:00 11,4 C 79 % 1026,3 hPa 0,0 l/m 2,9 km/h (1 Bft) S-SE 0,00 h 0,076 mm 41 W/m 7,8 C 11,4 C 5,4 km/h (1 Bft)
19/01/2022 17:00 10,5 C 85 % 1025,8 hPa 0,0 l/m 3,9 km/h (1 Bft) S-SE 0,00 h 0,025 mm 12 W/m 8,0 C 10,5 C 6,2 km/h (2 Bft)
19/01/2022 18:00 9,7 C 88 % 1025,5 hPa 0,0 l/m 0,5 km/h (0 Bft) S-SE 0,00 h 0,000 mm 0 W/m 7,8 C 9,7 C 1,1 km/h (1 Bft)
19/01/2022 19:00 8,7 C 89 % 1024,9 hPa 0,0 l/m 0,1 km/h (0 Bft) S-SE 0,00 h 0,000 mm 0 W/m 6,9 C 8,7 C 0,4 km/h (0 Bft)
19/01/2022 20:00 7,7 C 89 % 1024,3 hPa 0,0 l/m 0,0 km/h (0 Bft) N 0,00 h 0,000 mm 0 W/m 6,1 C 7,7 C 0,1 km/h (0 Bft)
19/01/2022 21:00 6,9 C 90 % 1023,6 hPa 0,0 l/m 0,1 km/h (0 Bft) S-SE 0,00 h 0,000 mm 0 W/m 5,4 C 6,9 C 0,2 km/h (0 Bft)
19/01/2022 22:00 6,4 C 92 % 1022,8 hPa 0,0 l/m 0,0 km/h (0 Bft) S-SE 0,00 h 0,000 mm 0 W/m 5,2 C 6,4 C 0,0 km/h (0 Bft)
19/01/2022 23:00 6,3 C 94 % 1022,0 hPa 0,0 l/m 0,6 km/h (0 Bft) S-SE 0,00 h 0,000 mm 0 W/m 5,4 C 6,3 C 2,2 km/h (1 Bft)
20/01/2022 00:00 5,7 C 93 % 1021,0 hPa 0,0 l/m 0,2 km/h (0 Bft) S-SE 0,00 h 0,000 mm 0 W/m 4,7 C 5,7 C 1,1 km/h (1 Bft)
20/01/2022 01:00 4,8 C 91 % 1020,1 hPa 0,0 l/m 0,2 km/h (0 Bft) S-SE 0,00 h 0,000 mm 0 W/m 3,5 C 4,8 C 1,0 km/h (0 Bft)
20/01/2022 02:00 4,6 C 87 % 1019,5 hPa 0,0 l/m 0,2 km/h (0 Bft) S-SE 0,00 h 0,000 mm 0 W/m 2,7 C 4,6 C 0,7 km/h (0 Bft)
20/01/2022 03:00 4,5 C 88 % 1019,4 hPa 0,0 l/m 0,1 km/h (0 Bft) S-SE 0,00 h 0,000 mm 0 W/m 2,7 C 4,5 C 0,2 km/h (0 Bft)
20/01/2022 04:00 4,2 C 88 % 1019,2 hPa 0,0 l/m 0,6 km/h (0 Bft) S-SE 0,00 h 0,000 mm 0 W/m 2,4 C 4,2 C 1,4 km/h (1 Bft)
20/01/2022 05:00 3,7 C 85 % 1019,1 hPa 0,0 l/m 0,0 km/h (0 Bft) N 0,00 h 0,000 mm 0 W/m 1,5 C 3,7 C 0,2 km/h (0 Bft)
20/01/2022 06:00 4,4 C 80 % 1019,5 hPa 0,0 l/m 0,0 km/h (0 Bft) N 0,00 h 0,000 mm 0 W/m 1,2 C 4,4 C 0,3 km/h (0 Bft)
20/01/2022 07:00 4,5 C 78 % 1020,1 hPa 0,0 l/m 0,0 km/h (0 Bft) S-SE 0,00 h 0,000 mm 5 W/m 1,1 C 4,5 C 0,3 km/h (0 Bft)
20/01/2022 08:00 4,6 C 78 % 1020,4 hPa 0,0 l/m 0,1 km/h (0 Bft) S-SE 0,83 h 0,000 mm 47 W/m 1,2 C 4,6 C 0,4 km/h (0 Bft)
20/01/2022 09:00 7,6 C 75 % 1020,8 hPa 0,0 l/m 0,0 km/h (0 Bft) N 1,00 h 0,025 mm 162 W/m 3,4 C 7,6 C 0,0 km/h (0 Bft)
20/01/2022 10:00 11,6 C 66 % 1020,9 hPa 0,0 l/m 0,0 km/h (0 Bft) N 1,00 h 0,076 mm 283 W/m 5,5 C 11,6 C 0,1 km/h (0 Bft)
20/01/2022 11:00 12,8 C 58 % 1020,7 hPa 0,0 l/m 0,0 km/h (0 Bft) N 1,00 h 0,152 mm 368 W/m 4,9 C 12,8 C 0,1 km/h (0 Bft)
20/01/2022 12:00 14,5 C 57 % 1020,6 hPa 0,0 l/m 1,3 km/h (1 Bft) S 1,00 h 0,178 mm 400 W/m 6,0 C 14,5 C 3,7 km/h (1 Bft)
20/01/2022 13:00 14,6 C 59 % 1019,5 hPa 0,0 l/m 2,1 km/h (1 Bft) S-SE 1,00 h 0,229 mm 380 W/m 6,7 C 14,6 C 4,5 km/h (1 Bft)
20/01/2022 14:00 14,2 C 62 % 1018,7 hPa 0,0 l/m 3,5 km/h (1 Bft) S-SE 1,00 h 0,203 mm 314 W/m 7,1 C 14,2 C 6,7 km/h (2 Bft)
20/01/2022 15:00 13,4 C 67 % 1018,3 hPa 0,0 l/m 2,4 km/h (1 Bft) S-SE 1,00 h 0,178 mm 211 W/m 7,4 C 13,4 C 5,0 km/h (1 Bft)
20/01/2022 16:00 12,5 C 69 % 1018,0 hPa 0,0 l/m 2,2 km/h (1 Bft) S-SE 1,00 h 0,127 mm 94 W/m 6,9 C 12,5 C 4,4 km/h (1 Bft)
20/01/2022 17:00 10,7 C 73 % 1017,9 hPa 0,0 l/m 0,0 km/h (0 Bft) S-SE 0,22 h 0,051 mm 15 W/m 6,1 C 10,7 C 0,3 km/h (0 Bft)
20/01/2022 18:00 8,5 C 80 % 1017,9 hPa 0,0 l/m 0,0 km/h (0 Bft) N 0,00 h 0,000 mm 0 W/m 5,2 C 8,5 C 0,0 km/h (0 Bft)
20/01/2022 19:00 7,2 C 84 % 1018,0 hPa 0,0 l/m 0,0 km/h (0 Bft) N 0,00 h 0,025 mm 0 W/m 4,7 C 7,2 C 0,1 km/h (0 Bft)
20/01/2022 20:00 6,5 C 85 % 1018,0 hPa 0,0 l/m 0,0 km/h (0 Bft) S-SE 0,00 h 0,000 mm 0 W/m 4,2 C 6,5 C 0,6 km/h (0 Bft)
20/01/2022 21:00 6,1 C 84 % 1017,9 hPa 0,0 l/m 0,1 km/h (0 Bft) S-SE 0,00 h 0,000 mm 0 W/m 3,6 C 6,1 C 0,5 km/h (0 Bft)
20/01/2022 22:00 5,9 C 82 % 1018,0 hPa 0,0 l/m 0,1 km/h (0 Bft) S-SE 0,00 h 0,000 mm 0 W/m 3,1 C 5,9 C 0,9 km/h (0 Bft)
20/01/2022 23:00 5,9 C 79 % 1018,1 hPa 0,0 l/m 0,1 km/h (0 Bft) S-SE 0,00 h 0,000 mm 0 W/m 2,5 C 5,9 C 1,0 km/h (0 Bft)
21/01/2022 00:00 5,6 C 77 % 1018,1 hPa 0,0 l/m 0,0 km/h (0 Bft) S-SE 0,00 h 0,025 mm 0 W/m 1,9 C 5,6 C 0,3 km/h (0 Bft)
21/01/2022 01:00 5,2 C 77 % 1017,9 hPa 0,0 l/m 0,1 km/h (0 Bft) S-SE 0,00 h 0,025 mm 0 W/m 1,5 C 5,2 C 0,4 km/h (0 Bft)
21/01/2022 02:00 4,9 C 78 % 1017,8 hPa 0,0 l/m 0,4 km/h (0 Bft) S-SE 0,00 h 0,025 mm 0 W/m 1,3 C 4,9 C 1,1 km/h (1 Bft)
21/01/2022 03:00 4,6 C 78 % 1018,3 hPa 0,0 l/m 0,5 km/h (0 Bft) S-SE 0,00 h 0,025 mm 0 W/m 1,1 C 4,6 C 1,2 km/h (1 Bft)
21/01/2022 04:00 4,3 C 77 % 1017,9 hPa 0,0 l/m 0,2 km/h (0 Bft) S-SE 0,00 h 0,025 mm 0 W/m 0,6 C 4,3 C 1,0 km/h (0 Bft)
21/01/2022 05:00 4,6 C 76 % 1018,1 hPa 0,0 l/m 0,0 km/h (0 Bft) S-SE 0,00 h 0,025 mm 0 W/m 0,8 C 4,6 C 0,5 km/h (0 Bft)
21/01/2022 06:00 4,3 C 74 % 1018,2 hPa 0,0 l/m 1,2 km/h (1 Bft) S-SE 0,00 h 0,025 mm 0 W/m 0,2 C 4,3 C 2,9 km/h (1 Bft)
21/01/2022 07:00 4,1 C 71 % 1018,7 hPa 0,0 l/m 0,2 km/h (0 Bft) S-SE 0,00 h 0,025 mm 5 W/m -0,7 C 4,1 C 1,1 km/h (1 Bft)
21/01/2022 08:00 5,0 C 67 % 1019,4 hPa 0,0 l/m 0,1 km/h (0 Bft) S-SE 0,85 h 0,000 mm 50 W/m -0,5 C 5,0 C 0,2 km/h (0 Bft)
21/01/2022 09:00 7,3 C 63 % 1020,1 hPa 0,0 l/m 0,0 km/h (0 Bft) N 1,00 h 0,025 mm 175 W/m 0,7 C 7,3 C 0,0 km/h (0 Bft)
21/01/2022 10:00 10,6 C 58 % 1020,9 hPa 0,0 l/m 0,0 km/h (0 Bft) N 1,00 h 0,076 mm 294 W/m 2,7 C 10,6 C 0,0 km/h (0 Bft)
21/01/2022 11:00 13,3 C 55 % 1021,4 hPa 0,0 l/m 1,1 km/h (1 Bft) S 1,00 h 0,152 mm 377 W/m 4,3 C 13,3 C 2,4 km/h (1 Bft)
21/01/2022 12:00 14,3 C 49 % 1021,3 hPa 0,0 l/m 1,9 km/h (1 Bft) S 1,00 h 0,203 mm 412 W/m 3,6 C 14,3 C 4,8 km/h (1 Bft)
21/01/2022 13:00 14,6 C 46 % 1020,6 hPa 0,0 l/m 3,7 km/h (1 Bft) SO 1,00 h 0,229 mm 394 W/m 3,0 C 14,6 C 8,3 km/h (2 Bft)
21/01/2022 14:00 14,6 C 45 % 1020,6 hPa 0,0 l/m 4,7 km/h (1 Bft) S-SO 1,00 h 0,229 mm 329 W/m 2,7 C 14,6 C 9,4 km/h (2 Bft)
21/01/2022 15:00 13,7 C 54 % 1020,6 hPa 0,0 l/m 5,6 km/h (1 Bft) S 1,00 h 0,203 mm 221 W/m 4,6 C 13,7 C 10,1 km/h (2 Bft)
21/01/2022 16:00 12,9 C 56 % 1021,1 hPa 0,0 l/m 2,3 km/h (1 Bft) S 1,00 h 0,152 mm 97 W/m 4,2 C 12,9 C 5,2 km/h (1 Bft)
21/01/2022 17:00 11,1 C 61 % 1021,6 hPa 0,0 l/m 0,2 km/h (0 Bft) S 0,20 h 0,076 mm 15 W/m 3,9 C 11,1 C 1,1 km/h (1 Bft)
21/01/2022 18:00 9,3 C 65 % 1022,3 hPa 0,0 l/m 0,0 km/h (0 Bft) N 0,00 h 0,000 mm 0 W/m 3,0 C 9,3 C 0,1 km/h (0 Bft)
21/01/2022 19:00 8,1 C 69 % 1023,1 hPa 0,0 l/m 0,2 km/h (0 Bft) S 0,00 h 0,025 mm 0 W/m 2,7 C 8,1 C 1,0 km/h (0 Bft)
21/01/2022 20:00 7,2 C 70 % 1023,9 hPa 0,0 l/m 0,2 km/h (0 Bft) S 0,00 h 0,025 mm 0 W/m 2,1 C 7,2 C 1,2 km/h (1 Bft)
21/01/2022 21:00 6,5 C 72 % 1024,2 hPa 0,0 l/m 0,2 km/h (0 Bft) S 0,00 h 0,025 mm 0 W/m 1,8 C 6,5 C 0,9 km/h (0 Bft)
21/01/2022 22:00 6,1 C 72 % 1024,5 hPa 0,0 l/m 0,0 km/h (0 Bft) N 0,00 h 0,025 mm 0 W/m 1,5 C 6,1 C 0,3 km/h (0 Bft)
21/01/2022 23:00 5,8 C 71 % 1024,8 hPa 0,0 l/m 0,0 km/h (0 Bft) N 0,00 h 0,025 mm 0 W/m 1,0 C 5,8 C 0,2 km/h (0 Bft)
22/01/2022 00:00 5,6 C 70 % 1025,3 hPa 0,0 l/m 0,1 km/h (0 Bft) S 0,00 h 0,025 mm 0 W/m 0,6 C 5,6 C 0,9 km/h (0 Bft)
22/01/2022 01:00 5,5 C 68 % 1025,6 hPa 0,0 l/m 0,0 km/h (0 Bft) S 0,00 h 0,025 mm 0 W/m 0,0 C 5,5 C 1,1 km/h (1 Bft)
22/01/2022 02:00 5,3 C 67 % 1025,6 hPa 0,0 l/m 0,1 km/h (0 Bft) S 0,00 h 0,025 mm 0 W/m -0,3 C 5,3 C 0,9 km/h (0 Bft)
22/01/2022 03:00 5,5 C 66 % 1025,7 hPa 0,0 l/m 0,2 km/h (0 Bft) S 0,00 h 0,025 mm 0 W/m -0,3 C 5,5 C 1,3 km/h (1 Bft)
22/01/2022 04:00 5,4 C 66 % 1025,6 hPa 0,0 l/m 0,2 km/h (0 Bft) S 0,00 h 0,025 mm 0 W/m -0,4 C 5,4 C 1,3 km/h (1 Bft)
22/01/2022 05:00 5,0 C 70 % 1025,7 hPa 0,0 l/m 0,5 km/h (0 Bft) S 0,00 h 0,025 mm 0 W/m -0,1 C 5,0 C 1,8 km/h (1 Bft)
22/01/2022 06:00 4,8 C 73 % 1025,7 hPa 0,0 l/m 1,7 km/h (1 Bft) S 0,00 h 0,025 mm 0 W/m 0,4 C 4,8 C 4,2 km/h (1 Bft)
22/01/2022 07:00 4,6 C 73 % 1026,0 hPa 0,0 l/m 1,1 km/h (0 Bft) S 0,00 h 0,025 mm 5 W/m 0,1 C 4,6 C 2,5 km/h (1 Bft)
22/01/2022 08:00 4,6 C 73 % 1026,4 hPa 0,0 l/m 0,4 km/h (0 Bft) S 0,85 h 0,000 mm 51 W/m 0,3 C 4,6 C 1,5 km/h (1 Bft)
22/01/2022 09:00 7,0 C 69 % 1026,5 hPa 0,0 l/m 0,0 km/h (0 Bft) N 1,00 h 0,025 mm 176 W/m 1,7 C 7,0 C 0,0 km/h (0 Bft)
22/01/2022 10:00 10,2 C 64 % 1026,6 hPa 0,0 l/m 0,0 km/h (0 Bft) N 1,00 h 0,076 mm 295 W/m 3,6 C 10,2 C 0,0 km/h (0 Bft)
22/01/2022 11:00 13,3 C 59 % 1026,9 hPa 0,0 l/m 0,1 km/h (0 Bft) S 1,00 h 0,152 mm 377 W/m 5,3 C 13,3 C 0,6 km/h (0 Bft)
22/01/2022 12:00 14,4 C 54 % 1026,4 hPa 0,0 l/m 0,5 km/h (0 Bft) S-SO 1,00 h 0,203 mm 410 W/m 5,2 C 14,4 C 2,3 km/h (1 Bft)
22/01/2022 13:00 14,5 C 55 % 1025,9 hPa 0,0 l/m 1,8 km/h (1 Bft) S-SO 1,00 h 0,229 mm 390 W/m 5,5 C 14,5 C 4,8 km/h (1 Bft)
22/01/2022 14:00 14,2 C 58 % 1025,6 hPa 0,0 l/m 1,9 km/h (1 Bft) S 1,00 h 0,203 mm 321 W/m 6,0 C 14,2 C 5,2 km/h (1 Bft)
22/01/2022 15:00 13,0 C 62 % 1025,3 hPa 0,0 l/m 3,4 km/h (1 Bft) S-SE 1,00 h 0,178 mm 221 W/m 5,9 C 13,0 C 6,5 km/h (2 Bft)
22/01/2022 16:00 12,2 C 65 % 1025,5 hPa 0,0 l/m 1,5 km/h (1 Bft) S-SE 1,00 h 0,127 mm 101 W/m 5,9 C 12,2 C 3,3 km/h (1 Bft)
22/01/2022 17:00 10,9 C 68 % 1026,0 hPa 0,0 l/m 0,0 km/h (0 Bft) N 0,12 h 0,051 mm 14 W/m 5,3 C 10,9 C 0,0 km/h (0 Bft)
22/01/2022 18:00 9,0 C 75 % 1026,5 hPa 0,0 l/m 0,0 km/h (0 Bft) N 0,00 h 0,000 mm 0 W/m 4,7 C 9,0 C 0,0 km/h (0 Bft)
22/01/2022 19:00 7,6 C 79 % 1026,9 hPa 0,0 l/m 0,3 km/h (0 Bft) S-SE 0,00 h 0,025 mm 0 W/m 4,1 C 7,6 C 1,0 km/h (0 Bft)
22/01/2022 20:00 6,7 C 80 % 1026,9 hPa 0,0 l/m 0,3 km/h (0 Bft) S-SE 0,00 h 0,025 mm 0 W/m 3,5 C 6,7 C 1,0 km/h (0 Bft)
22/01/2022 21:00 6,2 C 81 % 1027,0 hPa 0,0 l/m 0,0 km/h (0 Bft) S-SE 0,00 h 0,025 mm 0 W/m 3,3 C 6,2 C 0,1 km/h (0 Bft)
22/01/2022 22:00 5,9 C 83 % 1026,7 hPa 0,0 l/m 0,0 km/h (0 Bft) N 0,00 h 0,000 mm 0 W/m 3,3 C 5,9 C 0,1 km/h (0 Bft)
22/01/2022 23:00 5,8 C 80 % 1026,8 hPa 0,0 l/m 0,1 km/h (0 Bft) S-SE 0,00 h 0,000 mm 0 W/m 2,6 C 5,8 C 0,2 km/h (0 Bft)
23/01/2022 00:00 6,1 C 76 % 1026,8 hPa 0,0 l/m 0,0 km/h (0 Bft) N 0,00 h 0,000 mm 0 W/m 2,2 C 6,1 C 0,0 km/h (0 Bft)
23/01/2022 01:00 6,2 C 76 % 1026,7 hPa 0,0 l/m 0,0 km/h (0 Bft) S-SE 0,00 h 0,025 mm 0 W/m 2,3 C 6,2 C 0,2 km/h (0 Bft)
23/01/2022 02:00 6,2 C 76 % 1026,6 hPa 0,0 l/m 0,1 km/h (0 Bft) S-SE 0,00 h 0,025 mm 0 W/m 2,3 C 6,2 C 0,2 km/h (0 Bft)
23/01/2022 03:00 6,0 C 74 % 1026,4 hPa 0,0 l/m 0,0 km/h (0 Bft) N 0,00 h 0,025 mm 0 W/m 1,8 C 6,0 C 0,0 km/h (0 Bft)
23/01/2022 04:00 5,9 C 73 % 1026,4 hPa 0,0 l/m 0,0 km/h (0 Bft) N 0,00 h 0,025 mm 0 W/m 1,4 C 5,9 C 0,1 km/h (0 Bft)
23/01/2022 05:00 5,7 C 78 % 1026,6 hPa 0,0 l/m 0,5 km/h (0 Bft) S-SE 0,00 h 0,025 mm 0 W/m 2,1 C 5,7 C 1,0 km/h (0 Bft)
23/01/2022 06:00 5,9 C 76 % 1026,9 hPa 0,0 l/m 0,4 km/h (0 Bft) S-SE 0,00 h 0,025 mm 0 W/m 2,0 C 5,9 C 1,2 km/h (1 Bft)
23/01/2022 07:00 5,6 C 75 % 1027,4 hPa 0,0 l/m 0,5 km/h (0 Bft) S-SE 0,00 h 0,025 mm 5 W/m 1,6 C 5,6 C 1,1 km/h (1 Bft)
23/01/2022 08:00 5,9 C 72 % 1028,1 hPa 0,0 l/m 0,1 km/h (0 Bft) S-SE 0,87 h 0,000 mm 55 W/m 1,2 C 5,9 C 0,3 km/h (0 Bft)
23/01/2022 09:00 9,1 C 66 % 1028,4 hPa 0,0 l/m 0,0 km/h (0 Bft) N 1,00 h 0,025 mm 181 W/m 3,0 C 9,1 C 0,0 km/h (0 Bft)
23/01/2022 10:00 11,7 C 62 % 1028,9 hPa 0,0 l/m 0,0 km/h (0 Bft) N 1,00 h 0,076 mm 300 W/m 4,7 C 11,7 C 0,2 km/h (0 Bft)
23/01/2022 11:00 13,6 C 60 % 1029,3 hPa 0,0 l/m 0,3 km/h (0 Bft) S-SE 1,00 h 0,152 mm 383 W/m 6,0 C 13,6 C 1,5 km/h (1 Bft)
23/01/2022 12:00 14,9 C 59 % 1029,0 hPa 0,0 l/m 1,2 km/h (1 Bft) S-SE 1,00 h 0,203 mm 416 W/m 7,0 C 14,9 C 4,7 km/h (1 Bft)
23/01/2022 13:00 14,8 C 57 % 1028,5 hPa 0,0 l/m 0,7 km/h (0 Bft) E-SE 1,00 h 0,229 mm 400 W/m 6,3 C 14,8 C 2,6 km/h (1 Bft)
23/01/2022 14:00 14,6 C 58 % 1027,9 hPa 0,0 l/m 1,0 km/h (0 Bft) S-SE 1,00 h 0,203 mm 334 W/m 6,4 C 14,6 C 3,4 km/h (1 Bft)
23/01/2022 15:00 14,1 C 65 % 1027,7 hPa 0,0 l/m 0,2 km/h (0 Bft) E-SE 1,00 h 0,178 mm 226 W/m 7,6 C 14,1 C 0,9 km/h (0 Bft)
23/01/2022 16:00 13,1 C 70 % 1027,8 hPa 0,0 l/m 0,1 km/h (0 Bft) E-SE 1,00 h 0,127 mm 101 W/m 7,8 C 13,1 C 0,4 km/h (0 Bft)
23/01/2022 17:00 10,7 C 78 % 1028,0 hPa 0,0 l/m 0,0 km/h (0 Bft) N 0,08 h 0,051 mm 15 W/m 7,0 C 10,7 C 0,1 km/h (0 Bft)
23/01/2022 18:00 8,8 C 83 % 1028,2 hPa 0,0 l/m 0,0 km/h (0 Bft) N 0,00 h 0,000 mm 0 W/m 6,1 C 8,8 C 0,0 km/h (0 Bft)
23/01/2022 19:00 7,5 C 85 % 1028,5 hPa 0,0 l/m 0,1 km/h (0 Bft) E-SE 0,00 h 0,000 mm 0 W/m 5,2 C 7,5 C 0,7 km/h (0 Bft)
23/01/2022 20:00 6,4 C 88 % 1028,6 hPa 0,0 l/m 0,1 km/h (0 Bft) E-SE 0,00 h 0,000 mm 0 W/m 4,6 C 6,4 C 0,7 km/h (0 Bft)
23/01/2022 21:00 6,1 C 88 % 1028,5 hPa 0,0 l/m 0,0 km/h (0 Bft) E-SE 0,00 h 0,000 mm 0 W/m 4,3 C 6,1 C 0,6 km/h (0 Bft)
23/01/2022 22:00 5,9 C 87 % 1028,5 hPa 0,0 l/m 0,2 km/h (0 Bft) E-SE 0,00 h 0,000 mm 0 W/m 3,9 C 5,9 C 1,0 km/h (0 Bft)
23/01/2022 23:00 5,7 C 87 % 1028,6 hPa 0,0 l/m 1,1 km/h (0 Bft) E-SE 0,00 h 0,000 mm 0 W/m 3,6 C 5,7 C 2,2 km/h (1 Bft)
Min-Date _ 20/01/22 21/01/22 21/01/22 - 17/01/22 - - - - 17/01/22 20/01/22 17/01/22
_ Min-Heure 05:22 14:03 01:45 - 00:00 - - - - 09:07 04:18 00:00
Minimum _ 3,6 C 40 % 1017,7 hPa - 0,0 km/h (0 Bft) - - - - -1,1 C 3,4 C 0,0 km/h (0 Bft)
Max-Date _ 17/01/22 19/01/22 18/01/22 17/01/22 21/01/22 - 17/01/22 17/01/22 19/01/22 17/01/22 17/01/22 21/01/22
_ Max-Heure 14:20 23:16 21:45 00:00 13:58 - 08:12 13:00 12:59 16:14 14:20 13:58
Maximum _ 17,0 C 94 % 1032,7 hPa 0,0 l/m 11,3 km/h
SO (2 Bft)
- 0,02 h 0,229 mm 445 W/m 10,0 C 17,0 C 17,7 km/h
SO (3 Bft)
Moyenne _ 8,7 C 73 % 1025,4 hPa #0,0 l/m 0,5 km/h (0 Bft) S-SE #58:52 h #9,630 mm 210 W/m 3,9 C 8,7 C 1,4 km/h (1 Bft)
Roquefort les pins